sensor_id;sensor_type;location;lat;lon;timestamp;temperature;humidity
51825;DHT22;37879;52.986;6.282;2023-04-25T00:01:45;6.40;99.90
51825;DHT22;37879;52.986;6.282;2023-04-25T00:04:10;6.40;99.90
51825;DHT22;37879;52.986;6.282;2023-04-25T00:06:37;6.40;99.90
51825;DHT22;37879;52.986;6.282;2023-04-25T00:09:04;6.40;99.90
51825;DHT22;37879;52.986;6.282;2023-04-25T00:11:33;6.40;99.90
51825;DHT22;37879;52.986;6.282;2023-04-25T00:13:58;6.40;99.90
51825;DHT22;37879;52.986;6.282;2023-04-25T00:16:25;6.40;99.90
51825;DHT22;37879;52.986;6.282;2023-04-25T00:18:51;6.30;99.90
51825;DHT22;37879;52.986;6.282;2023-04-25T00:21:19;6.30;99.90
51825;DHT22;37879;52.986;6.282;2023-04-25T00:23:46;6.30;99.90
51825;DHT22;37879;52.986;6.282;2023-04-25T00:26:12;6.30;99.90
51825;DHT22;37879;52.986;6.282;2023-04-25T00:28:39;6.30;99.90
51825;DHT22;37879;52.986;6.282;2023-04-25T00:31:05;6.20;99.90
51825;DHT22;37879;52.986;6.282;2023-04-25T00:33:30;6.10;99.90
51825;DHT22;37879;52.986;6.282;2023-04-25T00:35:56;6.10;99.90
51825;DHT22;37879;52.986;6.282;2023-04-25T00:38:22;6.00;99.90
51825;DHT22;37879;52.986;6.282;2023-04-25T00:40:47;6.00;99.90
51825;DHT22;37879;52.986;6.282;2023-04-25T00:43:13;5.90;99.90
51825;DHT22;37879;52.986;6.282;2023-04-25T00:45:39;5.90;99.90
51825;DHT22;37879;52.986;6.282;2023-04-25T00:48:05;5.90;99.90
51825;DHT22;37879;52.986;6.282;2023-04-25T00:50:33;5.90;99.90
51825;DHT22;37879;52.986;6.282;2023-04-25T00:52:59;5.80;99.90
51825;DHT22;37879;52.986;6.282;2023-04-25T00:55:26;5.80;99.90
51825;DHT22;37879;52.986;6.282;2023-04-25T00:57:51;5.90;99.90
51825;DHT22;37879;52.986;6.282;2023-04-25T01:00:18;6.10;99.90
51825;DHT22;37879;52.986;6.282;2023-04-25T01:02:44;5.60;99.90
51825;DHT22;37879;52.986;6.282;2023-04-25T01:05:11;5.60;99.90
51825;DHT22;37879;52.986;6.282;2023-04-25T01:07:37;5.60;99.90
51825;DHT22;37879;52.986;6.282;2023-04-25T01:10:04;5.60;99.90
51825;DHT22;37879;52.986;6.282;2023-04-25T01:12:30;5.60;99.90
51825;DHT22;37879;52.986;6.282;2023-04-25T01:14:56;5.60;99.90
51825;DHT22;37879;52.986;6.282;2023-04-25T01:17:22;6.60;99.90
51825;DHT22;37879;52.986;6.282;2023-04-25T01:19:47;5.60;99.90
51825;DHT22;37879;52.986;6.282;2023-04-25T01:22:14;5.70;99.90
51825;DHT22;37879;52.986;6.282;2023-04-25T01:24:40;5.50;99.90
51825;DHT22;37879;52.986;6.282;2023-04-25T01:27:07;5.50;99.90
51825;DHT22;37879;52.986;6.282;2023-04-25T01:29:33;5.50;99.90
51825;DHT22;37879;52.986;6.282;2023-04-25T01:32:00;5.60;99.90
51825;DHT22;37879;52.986;6.282;2023-04-25T01:34:26;5.50;99.90
51825;DHT22;37879;52.986;6.282;2023-04-25T01:36:52;5.60;99.90
51825;DHT22;37879;52.986;6.282;2023-04-25T01:39:19;5.60;99.90
51825;DHT22;37879;52.986;6.282;2023-04-25T01:41:46;5.60;99.90
51825;DHT22;37879;52.986;6.282;2023-04-25T01:44:12;5.60;99.90
51825;DHT22;37879;52.986;6.282;2023-04-25T01:46:38;5.50;99.90
51825;DHT22;37879;52.986;6.282;2023-04-25T01:49:04;5.50;99.90
51825;DHT22;37879;52.986;6.282;2023-04-25T01:51:30;5.50;99.90
51825;DHT22;37879;52.986;6.282;2023-04-25T01:53:57;5.50;99.90
51825;DHT22;37879;52.986;6.282;2023-04-25T01:56:22;5.40;99.90
51825;DHT22;37879;52.986;6.282;2023-04-25T01:58:48;5.40;99.90
51825;DHT22;37879;52.986;6.282;2023-04-25T02:01:14;5.40;99.90
51825;DHT22;37879;52.986;6.282;2023-04-25T02:03:40;5.70;99.90
51825;DHT22;37879;52.986;6.282;2023-04-25T02:06:06;5.40;99.90
51825;DHT22;37879;52.986;6.282;2023-04-25T02:08:31;5.30;99.90
51825;DHT22;37879;52.986;6.282;2023-04-25T02:10:57;5.30;99.90
51825;DHT22;37879;52.986;6.282;2023-04-25T02:13:23;5.30;99.90
51825;DHT22;37879;52.986;6.282;2023-04-25T02:15:49;5.30;99.90
51825;DHT22;37879;52.986;6.282;2023-04-25T02:18:15;5.30;99.90
51825;DHT22;37879;52.986;6.282;2023-04-25T02:20:42;5.30;99.90
51825;DHT22;37879;52.986;6.282;2023-04-25T02:23:08;5.30;99.90
51825;DHT22;37879;52.986;6.282;2023-04-25T02:25:33;5.30;99.90
51825;DHT22;37879;52.986;6.282;2023-04-25T02:27:59;5.20;99.90
51825;DHT22;37879;52.986;6.282;2023-04-25T02:30:24;5.30;99.90
51825;DHT22;37879;52.986;6.282;2023-04-25T02:32:50;5.40;99.90
51825;DHT22;37879;52.986;6.282;2023-04-25T02:35:16;5.20;99.90
51825;DHT22;37879;52.986;6.282;2023-04-25T02:37:42;5.20;99.90
51825;DHT22;37879;52.986;6.282;2023-04-25T02:40:08;5.10;99.90
51825;DHT22;37879;52.986;6.282;2023-04-25T02:42:34;5.00;99.90
51825;DHT22;37879;52.986;6.282;2023-04-25T02:45:00;5.10;99.90
51825;DHT22;37879;52.986;6.282;2023-04-25T02:47:25;4.90;99.90
51825;DHT22;37879;52.986;6.282;2023-04-25T02:49:51;4.90;99.90
51825;DHT22;37879;52.986;6.282;2023-04-25T02:52:17;4.90;99.90
51825;DHT22;37879;52.986;6.282;2023-04-25T02:54:43;5.00;99.90
51825;DHT22;37879;52.986;6.282;2023-04-25T02:57:08;5.00;99.90
51825;DHT22;37879;52.986;6.282;2023-04-25T02:59:34;5.00;99.90
51825;DHT22;37879;52.986;6.282;2023-04-25T03:02:00;5.10;99.90
51825;DHT22;37879;52.986;6.282;2023-04-25T03:04:27;5.80;99.90
51825;DHT22;37879;52.986;6.282;2023-04-25T03:06:53;5.10;99.90
51825;DHT22;37879;52.986;6.282;2023-04-25T03:09:19;4.70;99.90
51825;DHT22;37879;52.986;6.282;2023-04-25T03:11:45;6.20;99.90
51825;DHT22;37879;52.986;6.282;2023-04-25T03:14:12;4.60;99.90
51825;DHT22;37879;52.986;6.282;2023-04-25T03:16:37;4.50;99.90
51825;DHT22;37879;52.986;6.282;2023-04-25T03:19:03;4.60;99.90
51825;DHT22;37879;52.986;6.282;2023-04-25T03:21:34;4.30;99.90
51825;DHT22;37879;52.986;6.282;2023-04-25T03:24:02;4.30;99.90
51825;DHT22;37879;52.986;6.282;2023-04-25T03:26:28;4.20;99.90
51825;DHT22;37879;52.986;6.282;2023-04-25T03:28:54;4.20;99.90
51825;DHT22;37879;52.986;6.282;2023-04-25T03:31:20;4.10;99.90
51825;DHT22;37879;52.986;6.282;2023-04-25T03:33:45;4.10;99.90
51825;DHT22;37879;52.986;6.282;2023-04-25T03:36:11;4.10;99.90
51825;DHT22;37879;52.986;6.282;2023-04-25T03:38:36;4.00;99.90
51825;DHT22;37879;52.986;6.282;2023-04-25T03:41:02;5.20;99.90
51825;DHT22;37879;52.986;6.282;2023-04-25T03:43:28;4.00;99.90
51825;DHT22;37879;52.986;6.282;2023-04-25T03:45:54;4.10;99.90
51825;DHT22;37879;52.986;6.282;2023-04-25T03:48:20;4.10;99.90
51825;DHT22;37879;52.986;6.282;2023-04-25T03:50:47;4.10;99.90
51825;DHT22;37879;52.986;6.282;2023-04-25T03:53:13;4.50;99.90
51825;DHT22;37879;52.986;6.282;2023-04-25T03:55:39;4.10;99.90
51825;DHT22;37879;52.986;6.282;2023-04-25T03:58:04;4.10;99.90
51825;DHT22;37879;52.986;6.282;2023-04-25T04:00:30;4.10;99.90
51825;DHT22;37879;52.986;6.282;2023-04-25T04:02:56;4.10;99.90
51825;DHT22;37879;52.986;6.282;2023-04-25T04:05:21;4.20;99.90
51825;DHT22;37879;52.986;6.282;2023-04-25T04:07:47;4.20;99.90
51825;DHT22;37879;52.986;6.282;2023-04-25T04:10:13;5.70;99.90
51825;DHT22;37879;52.986;6.282;2023-04-25T04:12:39;4.30;99.90
51825;DHT22;37879;52.986;6.282;2023-04-25T04:15:05;4.40;99.90
51825;DHT22;37879;52.986;6.282;2023-04-25T04:17:32;4.40;99.90
51825;DHT22;37879;52.986;6.282;2023-04-25T04:19:57;4.30;99.90
51825;DHT22;37879;52.986;6.282;2023-04-25T04:22:23;4.30;99.90
51825;DHT22;37879;52.986;6.282;2023-04-25T04:24:49;4.30;99.90
51825;DHT22;37879;52.986;6.282;2023-04-25T04:27:19;4.30;99.90
51825;DHT22;37879;52.986;6.282;2023-04-25T04:29:45;4.40;99.90
51825;DHT22;37879;52.986;6.282;2023-04-25T04:32:12;4.50;99.90
51825;DHT22;37879;52.986;6.282;2023-04-25T04:34:37;4.50;99.90
51825;DHT22;37879;52.986;6.282;2023-04-25T04:37:05;4.50;99.90
51825;DHT22;37879;52.986;6.282;2023-04-25T04:39:31;6.10;99.90
51825;DHT22;37879;52.986;6.282;2023-04-25T04:41:56;5.30;99.90
51825;DHT22;37879;52.986;6.282;2023-04-25T04:44:22;4.70;99.90
51825;DHT22;37879;52.986;6.282;2023-04-25T04:46:48;4.50;99.90
51825;DHT22;37879;52.986;6.282;2023-04-25T04:49:13;4.50;99.90
51825;DHT22;37879;52.986;6.282;2023-04-25T04:51:39;4.50;99.90
51825;DHT22;37879;52.986;6.282;2023-04-25T04:54:06;4.60;99.90
51825;DHT22;37879;52.986;6.282;2023-04-25T04:56:32;4.60;99.90
51825;DHT22;37879;52.986;6.282;2023-04-25T04:58:58;4.60;99.90
51825;DHT22;37879;52.986;6.282;2023-04-25T05:01:24;4.60;99.90
51825;DHT22;37879;52.986;6.282;2023-04-25T05:03:51;4.60;99.90
51825;DHT22;37879;52.986;6.282;2023-04-25T05:06:18;4.70;99.90
51825;DHT22;37879;52.986;6.282;2023-04-25T05:08:44;4.70;99.90
51825;DHT22;37879;52.986;6.282;2023-04-25T05:11:10;5.00;99.90
51825;DHT22;37879;52.986;6.282;2023-04-25T05:13:36;4.80;99.90
51825;DHT22;37879;52.986;6.282;2023-04-25T05:16:02;4.80;99.90
51825;DHT22;37879;52.986;6.282;2023-04-25T05:18:28;4.90;99.90
51825;DHT22;37879;52.986;6.282;2023-04-25T05:20:53;4.90;99.90
51825;DHT22;37879;52.986;6.282;2023-04-25T05:23:19;5.00;99.90
51825;DHT22;37879;52.986;6.282;2023-04-25T05:25:45;5.00;99.90
51825;DHT22;37879;52.986;6.282;2023-04-25T05:28:13;5.00;99.90
51825;DHT22;37879;52.986;6.282;2023-04-25T05:30:39;5.10;99.90
51825;DHT22;37879;52.986;6.282;2023-04-25T05:33:04;5.10;99.90
51825;DHT22;37879;52.986;6.282;2023-04-25T05:35:30;5.10;99.90
51825;DHT22;37879;52.986;6.282;2023-04-25T05:37:56;5.20;99.90
51825;DHT22;37879;52.986;6.282;2023-04-25T05:40:21;5.50;99.90
51825;DHT22;37879;52.986;6.282;2023-04-25T05:42:47;5.30;99.90
51825;DHT22;37879;52.986;6.282;2023-04-25T05:45:13;5.50;99.90
51825;DHT22;37879;52.986;6.282;2023-04-25T05:47:38;5.20;99.90
51825;DHT22;37879;52.986;6.282;2023-04-25T05:50:05;5.30;99.90
51825;DHT22;37879;52.986;6.282;2023-04-25T05:52:31;5.20;99.90
51825;DHT22;37879;52.986;6.282;2023-04-25T05:54:57;5.20;99.90
51825;DHT22;37879;52.986;6.282;2023-04-25T05:57:26;5.20;99.90
51825;DHT22;37879;52.986;6.282;2023-04-25T05:59:53;5.30;99.90
51825;DHT22;37879;52.986;6.282;2023-04-25T06:02:19;5.30;99.90
51825;DHT22;37879;52.986;6.282;2023-04-25T06:04:46;5.40;99.90
51825;DHT22;37879;52.986;6.282;2023-04-25T06:07:12;5.40;99.90
51825;DHT22;37879;52.986;6.282;2023-04-25T06:09:38;5.30;99.90
51825;DHT22;37879;52.986;6.282;2023-04-25T06:12:05;5.90;99.90
51825;DHT22;37879;52.986;6.282;2023-04-25T06:14:31;5.30;99.90
51825;DHT22;37879;52.986;6.282;2023-04-25T06:16:57;5.30;99.90
51825;DHT22;37879;52.986;6.282;2023-04-25T06:19:22;5.40;99.90
51825;DHT22;37879;52.986;6.282;2023-04-25T06:21:48;5.50;99.90
51825;DHT22;37879;52.986;6.282;2023-04-25T06:24:13;5.60;99.90
51825;DHT22;37879;52.986;6.282;2023-04-25T06:26:39;5.80;99.90
51825;DHT22;37879;52.986;6.282;2023-04-25T06:29:05;5.90;99.90
51825;DHT22;37879;52.986;6.282;2023-04-25T06:31:30;6.00;99.90
51825;DHT22;37879;52.986;6.282;2023-04-25T06:33:58;6.10;99.90
51825;DHT22;37879;52.986;6.282;2023-04-25T06:36:23;6.00;99.90
51825;DHT22;37879;52.986;6.282;2023-04-25T06:38:51;6.00;99.90
51825;DHT22;37879;52.986;6.282;2023-04-25T06:41:18;6.00;99.90
51825;DHT22;37879;52.986;6.282;2023-04-25T06:43:44;5.90;99.90
51825;DHT22;37879;52.986;6.282;2023-04-25T06:46:10;5.80;99.90
51825;DHT22;37879;52.986;6.282;2023-04-25T06:48:35;5.80;99.90
51825;DHT22;37879;52.986;6.282;2023-04-25T06:51:01;5.80;99.90
51825;DHT22;37879;52.986;6.282;2023-04-25T06:53:26;5.90;99.90
51825;DHT22;37879;52.986;6.282;2023-04-25T06:55:52;6.00;99.90
51825;DHT22;37879;52.986;6.282;2023-04-25T06:58:18;6.80;99.90
51825;DHT22;37879;52.986;6.282;2023-04-25T07:00:44;6.00;99.90
51825;DHT22;37879;52.986;6.282;2023-04-25T07:03:09;6.00;99.90
51825;DHT22;37879;52.986;6.282;2023-04-25T07:05:35;6.00;99.90
51825;DHT22;37879;52.986;6.282;2023-04-25T07:08:01;6.00;99.90
51825;DHT22;37879;52.986;6.282;2023-04-25T07:10:27;5.90;99.90
51825;DHT22;37879;52.986;6.282;2023-04-25T07:12:52;6.00;99.90
51825;DHT22;37879;52.986;6.282;2023-04-25T07:15:18;6.10;99.90
51825;DHT22;37879;52.986;6.282;2023-04-25T07:17:44;6.70;99.90
51825;DHT22;37879;52.986;6.282;2023-04-25T07:20:10;6.40;99.90
51825;DHT22;37879;52.986;6.282;2023-04-25T07:22:36;6.60;99.90
51825;DHT22;37879;52.986;6.282;2023-04-25T07:25:01;6.60;99.90
51825;DHT22;37879;52.986;6.282;2023-04-25T07:27:28;6.50;99.90
51825;DHT22;37879;52.986;6.282;2023-04-25T07:29:53;6.20;99.90
51825;DHT22;37879;52.986;6.282;2023-04-25T07:32:19;5.90;99.90
51825;DHT22;37879;52.986;6.282;2023-04-25T07:34:45;5.60;99.90
51825;DHT22;37879;52.986;6.282;2023-04-25T07:37:11;5.40;99.90
51825;DHT22;37879;52.986;6.282;2023-04-25T07:39:36;5.30;99.90
51825;DHT22;37879;52.986;6.282;2023-04-25T07:42:03;5.30;99.90
51825;DHT22;37879;52.986;6.282;2023-04-25T07:44:29;5.40;99.90
51825;DHT22;37879;52.986;6.282;2023-04-25T07:46:56;5.70;99.90
51825;DHT22;37879;52.986;6.282;2023-04-25T07:49:22;5.90;99.90
51825;DHT22;37879;52.986;6.282;2023-04-25T07:51:47;6.10;99.90
51825;DHT22;37879;52.986;6.282;2023-04-25T07:54:14;6.30;99.90
51825;DHT22;37879;52.986;6.282;2023-04-25T07:56:41;6.80;99.90
51825;DHT22;37879;52.986;6.282;2023-04-25T07:59:06;6.60;99.90
51825;DHT22;37879;52.986;6.282;2023-04-25T08:01:33;7.10;99.90
51825;DHT22;37879;52.986;6.282;2023-04-25T08:04:02;7.30;99.90
51825;DHT22;37879;52.986;6.282;2023-04-25T08:06:28;6.70;99.90
51825;DHT22;37879;52.986;6.282;2023-04-25T08:08:53;6.80;99.90
51825;DHT22;37879;52.986;6.282;2023-04-25T08:11:19;6.80;99.90
51825;DHT22;37879;52.986;6.282;2023-04-25T08:13:45;6.80;99.90
51825;DHT22;37879;52.986;6.282;2023-04-25T08:16:10;6.80;99.90
51825;DHT22;37879;52.986;6.282;2023-04-25T08:18:36;6.90;99.90
51825;DHT22;37879;52.986;6.282;2023-04-25T08:21:02;7.00;99.90
51825;DHT22;37879;52.986;6.282;2023-04-25T08:23:27;7.10;99.90
51825;DHT22;37879;52.986;6.282;2023-04-25T08:25:53;7.30;99.90
51825;DHT22;37879;52.986;6.282;2023-04-25T08:28:19;8.00;99.90
51825;DHT22;37879;52.986;6.282;2023-04-25T08:30:44;7.60;99.90
51825;DHT22;37879;52.986;6.282;2023-04-25T08:33:10;7.60;99.90
51825;DHT22;37879;52.986;6.282;2023-04-25T08:35:36;8.10;99.90
51825;DHT22;37879;52.986;6.282;2023-04-25T08:38:02;8.00;99.90
51825;DHT22;37879;52.986;6.282;2023-04-25T08:40:28;8.00;99.90
51825;DHT22;37879;52.986;6.282;2023-04-25T08:43:00;8.00;99.90
51825;DHT22;37879;52.986;6.282;2023-04-25T08:45:31;7.90;99.90
51825;DHT22;37879;52.986;6.282;2023-04-25T08:47:57;7.60;99.90
51825;DHT22;37879;52.986;6.282;2023-04-25T08:50:24;7.40;99.90
51825;DHT22;37879;52.986;6.282;2023-04-25T08:52:53;7.20;99.90
51825;DHT22;37879;52.986;6.282;2023-04-25T08:55:21;6.90;99.90
51825;DHT22;37879;52.986;6.282;2023-04-25T08:57:47;6.80;99.90
51825;DHT22;37879;52.986;6.282;2023-04-25T09:00:13;6.70;99.90
51825;DHT22;37879;52.986;6.282;2023-04-25T09:02:40;6.60;99.90
51825;DHT22;37879;52.986;6.282;2023-04-25T09:05:07;6.70;99.90
51825;DHT22;37879;52.986;6.282;2023-04-25T09:07:35;6.80;99.90
51825;DHT22;37879;52.986;6.282;2023-04-25T09:10:00;7.00;99.90
51825;DHT22;37879;52.986;6.282;2023-04-25T09:12:29;7.10;99.90
51825;DHT22;37879;52.986;6.282;2023-04-25T09:15:10;7.10;99.90
51825;DHT22;37879;52.986;6.282;2023-04-25T09:17:36;7.10;99.90
51825;DHT22;37879;52.986;6.282;2023-04-25T09:20:12;7.20;99.90
51825;DHT22;37879;52.986;6.282;2023-04-25T09:22:39;7.40;99.90
51825;DHT22;37879;52.986;6.282;2023-04-25T09:25:12;7.50;99.90
51825;DHT22;37879;52.986;6.282;2023-04-25T09:28:06;7.70;99.90
51825;DHT22;37879;52.986;6.282;2023-04-25T09:30:33;7.80;99.90
51825;DHT22;37879;52.986;6.282;2023-04-25T09:33:07;7.90;99.90
51825;DHT22;37879;52.986;6.282;2023-04-25T09:35:41;7.30;99.90
51825;DHT22;37879;52.986;6.282;2023-04-25T09:38:12;6.50;99.90
51825;DHT22;37879;52.986;6.282;2023-04-25T09:40:40;6.00;99.90
51825;DHT22;37879;52.986;6.282;2023-04-25T09:43:22;5.80;99.90
51825;DHT22;37879;52.986;6.282;2023-04-25T09:45:49;5.70;99.90
51825;DHT22;37879;52.986;6.282;2023-04-25T09:48:19;6.40;99.90
51825;DHT22;37879;52.986;6.282;2023-04-25T09:51:03;5.80;99.90
51825;DHT22;37879;52.986;6.282;2023-04-25T09:53:29;5.90;99.90
51825;DHT22;37879;52.986;6.282;2023-04-25T09:55:56;6.10;99.90
51825;DHT22;37879;52.986;6.282;2023-04-25T09:58:24;6.40;99.90
51825;DHT22;37879;52.986;6.282;2023-04-25T10:00:51;6.60;99.90
51825;DHT22;37879;52.986;6.282;2023-04-25T10:03:17;7.00;99.90
51825;DHT22;37879;52.986;6.282;2023-04-25T10:05:46;7.70;99.90
51825;DHT22;37879;52.986;6.282;2023-04-25T10:08:13;7.80;99.90
51825;DHT22;37879;52.986;6.282;2023-04-25T10:10:40;8.10;99.90
51825;DHT22;37879;52.986;6.282;2023-04-25T10:13:06;8.10;99.90
51825;DHT22;37879;52.986;6.282;2023-04-25T10:15:35;8.10;99.90
51825;DHT22;37879;52.986;6.282;2023-04-25T10:18:04;8.40;99.90
51825;DHT22;37879;52.986;6.282;2023-04-25T10:20:30;8.00;99.90
51825;DHT22;37879;52.986;6.282;2023-04-25T10:23:09;8.00;99.90
51825;DHT22;37879;52.986;6.282;2023-04-25T10:25:39;8.10;99.90
51825;DHT22;37879;52.986;6.282;2023-04-25T10:28:06;8.20;99.90
51825;DHT22;37879;52.986;6.282;2023-04-25T10:30:31;8.60;99.90
51825;DHT22;37879;52.986;6.282;2023-04-25T10:32:58;9.00;99.90
51825;DHT22;37879;52.986;6.282;2023-04-25T10:35:27;8.40;99.90
51825;DHT22;37879;52.986;6.282;2023-04-25T10:38:08;8.60;99.90
51825;DHT22;37879;52.986;6.282;2023-04-25T10:40:35;8.60;99.90
51825;DHT22;37879;52.986;6.282;2023-04-25T10:43:39;8.50;99.90
51825;DHT22;37879;52.986;6.282;2023-04-25T10:46:28;8.40;99.90
51825;DHT22;37879;52.986;6.282;2023-04-25T10:48:58;8.40;99.90
51825;DHT22;37879;52.986;6.282;2023-04-25T10:51:25;8.40;99.90
51825;DHT22;37879;52.986;6.282;2023-04-25T10:58:48;8.40;99.90
51825;DHT22;37879;52.986;6.282;2023-04-25T11:01:21;8.20;99.90
51825;DHT22;37879;52.986;6.282;2023-04-25T11:03:57;7.90;99.90
51825;DHT22;37879;52.986;6.282;2023-04-25T11:06:31;7.90;99.90
51825;DHT22;37879;52.986;6.282;2023-04-25T11:09:02;7.90;99.90
51825;DHT22;37879;52.986;6.282;2023-04-25T11:11:36;7.90;99.90
51825;DHT22;37879;52.986;6.282;2023-04-25T11:14:02;7.80;99.90
51825;DHT22;37879;52.986;6.282;2023-04-25T11:16:27;9.00;99.90
51825;DHT22;37879;52.986;6.282;2023-04-25T11:18:53;7.80;99.90
51825;DHT22;37879;52.986;6.282;2023-04-25T11:21:22;7.90;99.90
51825;DHT22;37879;52.986;6.282;2023-04-25T11:23:48;8.80;99.90
51825;DHT22;37879;52.986;6.282;2023-04-25T11:26:14;8.60;99.90
51825;DHT22;37879;52.986;6.282;2023-04-25T11:28:40;8.60;99.90
51825;DHT22;37879;52.986;6.282;2023-04-25T11:31:10;7.50;99.90
51825;DHT22;37879;52.986;6.282;2023-04-25T11:33:35;7.20;99.90
51825;DHT22;37879;52.986;6.282;2023-04-25T11:36:01;7.10;99.90
51825;DHT22;37879;52.986;6.282;2023-04-25T11:38:27;8.50;99.90
51825;DHT22;37879;52.986;6.282;2023-04-25T11:40:53;7.00;99.90
51825;DHT22;37879;52.986;6.282;2023-04-25T11:43:22;7.20;99.90
51825;DHT22;37879;52.986;6.282;2023-04-25T11:45:49;7.30;99.90
51825;DHT22;37879;52.986;6.282;2023-04-25T11:48:16;7.20;99.90
51825;DHT22;37879;52.986;6.282;2023-04-25T11:50:42;7.00;99.90
51825;DHT22;37879;52.986;6.282;2023-04-25T11:53:08;6.90;99.90
51825;DHT22;37879;52.986;6.282;2023-04-25T11:55:34;8.20;99.90
51825;DHT22;37879;52.986;6.282;2023-04-25T11:58:00;6.90;99.90
51825;DHT22;37879;52.986;6.282;2023-04-25T12:00:27;7.10;99.90
51825;DHT22;37879;52.986;6.282;2023-04-25T12:02:55;8.00;99.90
51825;DHT22;37879;52.986;6.282;2023-04-25T12:05:25;7.90;99.90
51825;DHT22;37879;52.986;6.282;2023-04-25T12:07:51;8.30;99.90
51825;DHT22;37879;52.986;6.282;2023-04-25T12:10:18;8.10;99.90
51825;DHT22;37879;52.986;6.282;2023-04-25T12:12:46;7.70;99.90
51825;DHT22;37879;52.986;6.282;2023-04-25T12:15:19;7.10;99.90
51825;DHT22;37879;52.986;6.282;2023-04-25T12:17:50;7.00;99.90
51825;DHT22;37879;52.986;6.282;2023-04-25T12:20:26;7.20;99.90
51825;DHT22;37879;52.986;6.282;2023-04-25T12:22:52;7.50;99.90
51825;DHT22;37879;52.986;6.282;2023-04-25T12:25:40;7.60;99.90
51825;DHT22;37879;52.986;6.282;2023-04-25T12:28:18;7.60;99.90
51825;DHT22;37879;52.986;6.282;2023-04-25T12:33:18;7.60;99.90
51825;DHT22;37879;52.986;6.282;2023-04-25T12:35:44;7.60;99.90
51825;DHT22;37879;52.986;6.282;2023-04-25T12:38:10;7.80;99.90
51825;DHT22;37879;52.986;6.282;2023-04-25T12:40:36;7.70;99.90
51825;DHT22;37879;52.986;6.282;2023-04-25T12:43:02;7.80;99.90
51825;DHT22;37879;52.986;6.282;2023-04-25T12:45:27;8.00;99.90
51825;DHT22;37879;52.986;6.282;2023-04-25T12:47:53;8.10;99.90
51825;DHT22;37879;52.986;6.282;2023-04-25T12:50:18;8.40;99.90
51825;DHT22;37879;52.986;6.282;2023-04-25T12:52:44;9.00;99.90
51825;DHT22;37879;52.986;6.282;2023-04-25T12:55:10;9.00;99.90
51825;DHT22;37879;52.986;6.282;2023-04-25T12:57:35;9.20;99.90
51825;DHT22;37879;52.986;6.282;2023-04-25T13:00:01;9.10;99.90
51825;DHT22;37879;52.986;6.282;2023-04-25T13:02:27;9.20;99.90
51825;DHT22;37879;52.986;6.282;2023-04-25T13:04:52;9.90;99.90
51825;DHT22;37879;52.986;6.282;2023-04-25T13:07:18;9.20;99.90
51825;DHT22;37879;52.986;6.282;2023-04-25T13:09:43;9.10;99.90
51825;DHT22;37879;52.986;6.282;2023-04-25T13:12:09;9.30;99.90
51825;DHT22;37879;52.986;6.282;2023-04-25T13:14:35;8.90;99.90
51825;DHT22;37879;52.986;6.282;2023-04-25T13:17:00;9.00;99.90
51825;DHT22;37879;52.986;6.282;2023-04-25T13:19:26;8.60;99.90
51825;DHT22;37879;52.986;6.282;2023-04-25T13:21:52;9.50;99.90
51825;DHT22;37879;52.986;6.282;2023-04-25T13:24:17;10.80;99.90
51825;DHT22;37879;52.986;6.282;2023-04-25T13:26:43;10.20;99.90
51825;DHT22;37879;52.986;6.282;2023-04-25T13:29:09;10.20;99.90
51825;DHT22;37879;52.986;6.282;2023-04-25T13:31:35;10.10;99.90
51825;DHT22;37879;52.986;6.282;2023-04-25T13:34:00;9.70;99.90
51825;DHT22;37879;52.986;6.282;2023-04-25T13:36:26;9.30;99.90
51825;DHT22;37879;52.986;6.282;2023-04-25T13:38:53;9.00;99.90
51825;DHT22;37879;52.986;6.282;2023-04-25T13:41:18;10.40;99.90
51825;DHT22;37879;52.986;6.282;2023-04-25T13:43:46;8.50;99.90
51825;DHT22;37879;52.986;6.282;2023-04-25T13:46:12;8.40;99.90
51825;DHT22;37879;52.986;6.282;2023-04-25T13:48:39;8.50;99.90
51825;DHT22;37879;52.986;6.282;2023-04-25T13:51:04;8.60;99.90
51825;DHT22;37879;52.986;6.282;2023-04-25T13:53:30;8.70;99.90
51825;DHT22;37879;52.986;6.282;2023-04-25T13:55:56;9.00;99.90
51825;DHT22;37879;52.986;6.282;2023-04-25T13:58:21;9.00;99.90
51825;DHT22;37879;52.986;6.282;2023-04-25T14:00:47;8.80;99.90
51825;DHT22;37879;52.986;6.282;2023-04-25T14:03:13;8.50;99.90
51825;DHT22;37879;52.986;6.282;2023-04-25T14:05:39;8.30;99.90
51825;DHT22;37879;52.986;6.282;2023-04-25T14:08:08;8.20;99.90
51825;DHT22;37879;52.986;6.282;2023-04-25T14:10:35;8.50;99.90
51825;DHT22;37879;52.986;6.282;2023-04-25T14:13:01;8.90;99.90
51825;DHT22;37879;52.986;6.282;2023-04-25T14:15:29;8.70;99.90
51825;DHT22;37879;52.986;6.282;2023-04-25T14:17:56;8.80;99.90
51825;DHT22;37879;52.986;6.282;2023-04-25T14:20:21;8.90;99.90
51825;DHT22;37879;52.986;6.282;2023-04-25T14:22:49;9.50;99.90
51825;DHT22;37879;52.986;6.282;2023-04-25T14:25:15;8.70;99.90
51825;DHT22;37879;52.986;6.282;2023-04-25T14:27:41;8.60;99.90
51825;DHT22;37879;52.986;6.282;2023-04-25T14:30:08;8.50;99.90
51825;DHT22;37879;52.986;6.282;2023-04-25T14:32:35;8.60;99.90
51825;DHT22;37879;52.986;6.282;2023-04-25T14:35:02;8.90;99.90
51825;DHT22;37879;52.986;6.282;2023-04-25T14:37:29;9.20;99.90
51825;DHT22;37879;52.986;6.282;2023-04-25T14:39:55;9.20;99.90
51825;DHT22;37879;52.986;6.282;2023-04-25T14:42:20;9.60;99.90
51825;DHT22;37879;52.986;6.282;2023-04-25T14:44:46;9.00;99.90
51825;DHT22;37879;52.986;6.282;2023-04-25T14:47:12;8.90;99.90
51825;DHT22;37879;52.986;6.282;2023-04-25T14:49:38;8.80;99.90
51825;DHT22;37879;52.986;6.282;2023-04-25T14:52:04;8.80;99.90
51825;DHT22;37879;52.986;6.282;2023-04-25T14:54:29;8.90;99.90
51825;DHT22;37879;52.986;6.282;2023-04-25T14:56:56;8.20;99.90
51825;DHT22;37879;52.986;6.282;2023-04-25T14:59:23;8.90;99.90
51825;DHT22;37879;52.986;6.282;2023-04-25T15:01:50;8.90;99.90
51825;DHT22;37879;52.986;6.282;2023-04-25T15:04:16;8.80;99.90
51825;DHT22;37879;52.986;6.282;2023-04-25T15:06:42;8.70;99.90
51825;DHT22;37879;52.986;6.282;2023-04-25T15:09:09;8.60;99.90
51825;DHT22;37879;52.986;6.282;2023-04-25T15:11:36;8.60;99.90
51825;DHT22;37879;52.986;6.282;2023-04-25T15:14:03;8.70;99.90
51825;DHT22;37879;52.986;6.282;2023-04-25T15:16:29;8.80;99.90
51825;DHT22;37879;52.986;6.282;2023-04-25T15:18:56;9.00;99.90
51825;DHT22;37879;52.986;6.282;2023-04-25T15:21:22;9.40;99.90
51825;DHT22;37879;52.986;6.282;2023-04-25T15:23:48;8.50;99.90
51825;DHT22;37879;52.986;6.282;2023-04-25T15:26:14;8.60;99.90
51825;DHT22;37879;52.986;6.282;2023-04-25T15:28:39;8.40;99.90
51825;DHT22;37879;52.986;6.282;2023-04-25T15:31:06;8.40;99.90
51825;DHT22;37879;52.986;6.282;2023-04-25T15:33:32;8.40;99.90
51825;DHT22;37879;52.986;6.282;2023-04-25T15:35:58;8.80;99.90
51825;DHT22;37879;52.986;6.282;2023-04-25T15:38:23;9.10;99.90
51825;DHT22;37879;52.986;6.282;2023-04-25T15:40:49;8.40;99.90
51825;DHT22;37879;52.986;6.282;2023-04-25T15:43:15;8.60;99.90
51825;DHT22;37879;52.986;6.282;2023-04-25T15:45:41;9.40;99.90
51825;DHT22;37879;52.986;6.282;2023-04-25T15:48:07;9.30;99.90
51825;DHT22;37879;52.986;6.282;2023-04-25T15:50:33;9.50;99.90